createdAt,value
2023-03-14T00:01:31.399Z,77.25
2023-03-14T00:03:58.231Z,66.00
2023-03-14T00:06:25.168Z,55.25
2023-03-14T00:08:52.858Z,78.50
2023-03-14T00:11:22.100Z,87.25
2023-03-14T00:13:52.258Z,73.25
2023-03-14T00:16:19.723Z,74.75
2023-03-14T00:18:46.495Z,74.25
2023-03-14T00:21:14.479Z,80.00
2023-03-14T00:23:43.037Z,77.75
2023-03-14T00:26:15.478Z,85.25
2023-03-14T00:28:43.369Z,60.25
2023-03-14T00:31:13.000Z,59.25
2023-03-14T00:33:41.709Z,65.50
2023-03-14T00:36:14.344Z,69.75
2023-03-14T00:38:42.690Z,67.75
2023-03-14T00:41:11.941Z,64.50
2023-03-14T00:43:38.884Z,41.25
2023-03-14T00:46:06.616Z,59.50
2023-03-14T00:48:33.715Z,73.25
2023-03-14T00:51:01.673Z,62.25
2023-03-14T00:53:28.639Z,65.25
2023-03-14T00:55:55.340Z,66.50
2023-03-14T00:58:22.165Z,67.25
2023-03-14T01:00:49.118Z,74.00
2023-03-14T01:03:16.569Z,76.25
2023-03-14T01:05:43.757Z,68.75
2023-03-14T01:08:10.638Z,69.25
2023-03-14T01:10:41.730Z,46.50
2023-03-14T01:13:09.916Z,51.25
2023-03-14T01:15:38.175Z,44.00
2023-03-14T01:18:05.426Z,56.50
2023-03-14T01:20:32.369Z,42.50
2023-03-14T01:22:59.540Z,38.00
2023-03-14T01:25:26.466Z,26.75
2023-03-14T01:27:53.287Z,32.50
2023-03-14T01:30:20.144Z,49.00
2023-03-14T01:32:46.970Z,54.25
2023-03-14T01:35:13.751Z,66.50
2023-03-14T01:37:40.987Z,52.75
2023-03-14T01:40:15.080Z,66.00
2023-03-14T01:42:46.828Z,69.00
2023-03-14T01:45:51.096Z,56.75
2023-03-14T01:48:18.095Z,66.25
2023-03-14T01:50:44.958Z,65.50
2023-03-14T01:53:11.715Z,62.00
2023-03-14T01:55:38.562Z,70.50
2023-03-14T01:58:06.314Z,68.75
2023-03-14T02:00:34.035Z,61.25
2023-03-14T02:03:08.223Z,68.50
2023-03-14T02:05:39.883Z,65.75
2023-03-14T02:08:15.037Z,51.50
2023-03-14T02:10:49.732Z,61.75
2023-03-14T02:13:22.512Z,65.50
2023-03-14T02:16:25.072Z,49.25
2023-03-14T02:19:04.596Z,49.75
2023-03-14T02:21:44.456Z,32.25
2023-03-14T02:24:33.488Z,35.50
2023-03-14T02:27:13.992Z,33.00
2023-03-14T02:29:50.394Z,32.25
2023-03-14T02:32:18.812Z,34.75
2023-03-14T02:34:50.509Z,39.50
2023-03-14T02:37:20.054Z,27.00
2023-03-14T02:39:48.956Z,35.00
2023-03-14T02:42:16.495Z,28.00
2023-03-14T02:44:51.564Z,30.00
2023-03-14T02:47:23.526Z,28.50
2023-03-14T02:50:00.125Z,28.25
2023-03-14T02:52:27.021Z,20.50
2023-03-14T02:54:53.806Z,23.50
2023-03-14T02:57:20.633Z,14.50
2023-03-14T02:59:47.480Z,23.50
2023-03-14T03:02:18.275Z,23.50
2023-03-14T03:04:45.073Z,24.25
2023-03-14T03:07:11.918Z,38.00
2023-03-14T03:09:38.709Z,36.50
2023-03-14T03:12:06.106Z,34.50
2023-03-14T03:14:33.271Z,38.25
2023-03-14T03:17:03.174Z,39.00
2023-03-14T03:19:30.039Z,40.50
2023-03-14T03:21:56.862Z,40.25
2023-03-14T03:24:23.677Z,41.75
2023-03-14T03:26:50.447Z,40.75
2023-03-14T03:29:17.303Z,40.00
2023-03-14T03:31:46.498Z,38.00
2023-03-14T03:34:14.809Z,33.00
2023-03-14T03:36:43.565Z,35.50
2023-03-14T03:39:10.591Z,36.00
2023-03-14T03:41:37.364Z,34.50
2023-03-14T03:44:04.636Z,34.25
2023-03-14T03:46:31.556Z,32.25
2023-03-14T03:49:00.436Z,38.75
2023-03-14T03:51:29.137Z,45.25
2023-03-14T03:53:58.009Z,45.00
2023-03-14T03:56:30.911Z,45.25
2023-03-14T03:58:57.858Z,45.75
2023-03-14T04:01:25.005Z,31.75
2023-03-14T04:03:55.163Z,46.25
2023-03-14T04:06:22.670Z,48.00
2023-03-14T04:08:51.105Z,46.00
2023-03-14T04:11:39.125Z,43.75
2023-03-14T04:14:29.142Z,44.00
2023-03-14T04:17:13.686Z,43.00
2023-03-14T04:19:40.546Z,41.50
2023-03-14T04:22:07.495Z,41.75
2023-03-14T04:24:39.782Z,42.00
2023-03-14T04:27:06.551Z,40.50
2023-03-14T04:29:34.862Z,42.25
2023-03-14T04:32:01.794Z,42.50
2023-03-14T04:34:28.858Z,36.25
2023-03-14T04:36:57.115Z,42.75
2023-03-14T04:39:33.778Z,34.50
2023-03-14T04:42:09.208Z,44.50
2023-03-14T04:44:38.168Z,45.75
2023-03-14T04:47:05.690Z,45.50
2023-03-14T04:49:33.039Z,46.00
2023-03-14T04:52:00.442Z,47.00
2023-03-14T04:54:29.888Z,43.00
2023-03-14T04:56:59.973Z,41.50
2023-03-14T04:59:30.880Z,43.00
2023-03-14T05:02:04.578Z,40.25
2023-03-14T05:04:54.015Z,43.75
2023-03-14T05:07:39.453Z,43.00
2023-03-14T05:10:24.817Z,41.25
2023-03-14T05:13:24.081Z,31.00
2023-03-14T05:16:12.561Z,43.25
2023-03-14T05:19:05.597Z,39.25
2023-03-14T05:21:35.027Z,32.00
2023-03-14T05:24:32.186Z,40.00
2023-03-14T05:27:15.867Z,43.50
2023-03-14T05:30:10.791Z,43.00
2023-03-14T05:33:06.655Z,45.25
2023-03-14T05:35:44.082Z,45.75
2023-03-14T05:38:40.411Z,44.50
2023-03-14T05:41:26.086Z,43.25
2023-03-14T05:44:11.510Z,57.00
2023-03-14T05:46:55.120Z,50.00
2023-03-14T05:49:48.019Z,54.00
2023-03-14T05:52:37.686Z,59.75
2023-03-14T05:55:17.265Z,63.00
2023-03-14T05:58:04.292Z,57.00
2023-03-14T06:00:43.857Z,59.00
2023-03-14T06:03:34.588Z,52.75
2023-03-14T06:06:01.602Z,62.00
2023-03-14T06:08:29.076Z,67.50
2023-03-14T06:10:57.682Z,68.75
2023-03-14T06:13:29.299Z,72.50
2023-03-14T06:15:56.303Z,62.50
2023-03-14T06:18:23.121Z,83.00
2023-03-14T06:20:50.137Z,86.25
2023-03-14T06:23:23.995Z,80.50
2023-03-14T06:25:51.607Z,86.00
2023-03-14T06:28:18.609Z,76.00
2023-03-14T06:30:45.542Z,87.25
2023-03-14T06:33:14.445Z,78.50
2023-03-14T06:35:42.279Z,82.00
2023-03-14T06:38:09.270Z,73.75
2023-03-14T06:40:36.318Z,77.00
2023-03-14T06:43:10.541Z,74.50
2023-03-14T06:45:39.978Z,80.75
2023-03-14T06:48:07.029Z,77.75
2023-03-14T06:50:50.863Z,77.00
2023-03-14T06:53:18.016Z,78.75
2023-03-14T06:55:46.760Z,75.00
2023-03-14T06:58:16.061Z,70.50
2023-03-14T07:00:45.518Z,68.25
2023-03-14T07:03:16.236Z,70.50
2023-03-14T07:05:46.459Z,73.75
2023-03-14T07:08:13.378Z,74.25
2023-03-14T07:10:40.169Z,74.75
2023-03-14T07:13:08.319Z,87.25
2023-03-14T07:15:44.982Z,95.50
2023-03-14T07:18:12.042Z,101.00
2023-03-14T07:20:39.304Z,92.50
2023-03-14T07:23:07.596Z,95.75
2023-03-14T07:25:39.505Z,100.00
2023-03-14T07:28:06.467Z,120.00
2023-03-14T07:30:33.787Z,122.75
2023-03-14T07:33:03.049Z,97.50
2023-03-14T07:35:30.055Z,96.00
2023-03-14T07:37:56.824Z,101.50
2023-03-14T07:40:30.790Z,107.25
2023-03-14T07:42:58.034Z,99.25
2023-03-14T07:45:42.968Z,99.00
2023-03-14T07:48:10.996Z,101.00
2023-03-14T07:50:37.944Z,100.00
2023-03-14T07:53:04.722Z,96.75
2023-03-14T07:55:31.514Z,95.75
2023-03-14T07:57:58.522Z,104.00
2023-03-14T08:00:25.409Z,89.50
2023-03-14T08:02:52.289Z,98.75
2023-03-14T08:05:19.184Z,88.25
2023-03-14T08:07:46.009Z,87.25
2023-03-14T08:10:16.846Z,86.75
2023-03-14T08:12:43.623Z,100.00
2023-03-14T08:15:10.848Z,96.50
2023-03-14T08:17:37.695Z,99.50
2023-03-14T08:20:09.202Z,102.25
2023-03-14T08:22:36.019Z,106.75
2023-03-14T08:25:03.289Z,99.75
2023-03-14T08:27:30.176Z,88.75
2023-03-14T08:29:57.016Z,93.75
2023-03-14T08:32:24.763Z,96.25
2023-03-14T08:34:51.658Z,100.50
2023-03-14T08:37:26.560Z,112.50
2023-03-14T08:39:54.773Z,77.00
2023-03-14T08:42:21.644Z,80.50
2023-03-14T08:44:48.405Z,67.50
2023-03-14T08:47:15.418Z,64.50
2023-03-14T08:49:42.418Z,68.00
2023-03-14T08:52:09.400Z,69.75
2023-03-14T08:54:36.481Z,72.75
2023-03-14T08:57:03.372Z,58.50
2023-03-14T08:59:30.403Z,77.00
2023-03-14T09:01:57.279Z,96.25
2023-03-14T09:04:24.244Z,97.50
2023-03-14T09:06:51.818Z,91.25
2023-03-14T09:09:18.738Z,92.50
2023-03-14T09:11:45.541Z,79.50
2023-03-14T09:14:12.365Z,65.25
2023-03-14T09:16:39.344Z,71.25
2023-03-14T09:19:06.702Z,79.50
2023-03-14T09:21:33.770Z,74.00
2023-03-14T09:24:00.702Z,67.25
2023-03-14T09:26:27.656Z,68.00
2023-03-14T09:28:54.958Z,57.75
2023-03-14T09:31:22.554Z,65.00
2023-03-14T09:33:49.408Z,80.50
2023-03-14T09:36:16.253Z,70.00
2023-03-14T09:38:43.212Z,72.50
2023-03-14T09:41:17.013Z,78.75
2023-03-14T09:43:46.122Z,63.00
2023-03-14T09:46:14.714Z,69.00
2023-03-14T09:48:42.415Z,71.75
2023-03-14T09:51:15.898Z,67.00
2023-03-14T09:53:51.059Z,70.00
2023-03-14T09:56:21.581Z,43.00
2023-03-14T09:59:14.534Z,47.00
2023-03-14T10:01:41.893Z,39.75
2023-03-14T10:04:16.325Z,48.25
2023-03-14T10:06:43.179Z,51.50
2023-03-14T10:09:20.597Z,47.00
2023-03-14T10:11:47.504Z,59.50
2023-03-14T10:14:28.859Z,52.50
2023-03-14T10:16:55.681Z,54.25
2023-03-14T10:19:22.556Z,54.00
2023-03-14T10:21:54.631Z,48.75
2023-03-14T10:24:30.533Z,45.75
2023-03-14T10:27:06.326Z,52.00
2023-03-14T10:29:35.328Z,53.25
2023-03-14T10:32:06.268Z,70.25
2023-03-14T10:34:38.914Z,68.75
2023-03-14T10:37:27.733Z,70.00
2023-03-14T10:39:59.711Z,36.00
2023-03-14T10:42:32.820Z,38.75
2023-03-14T10:45:03.375Z,30.67
2023-03-14T10:47:30.969Z,4.75
2023-03-14T10:50:15.535Z,9.75
2023-03-14T10:53:03.759Z,3.00
2023-03-14T10:55:41.844Z,2.75
2023-03-14T10:58:23.646Z,11.00
2023-03-14T11:01:08.693Z,6.25
2023-03-14T11:03:37.485Z,6.50
2023-03-14T11:06:18.222Z,8.00
2023-03-14T11:08:54.754Z,7.75
2023-03-14T11:11:26.428Z,20.00
2023-03-14T11:14:02.120Z,10.75
2023-03-14T11:16:52.102Z,6.00
2023-03-14T11:19:44.951Z,9.75
2023-03-14T11:22:36.461Z,7.00
2023-03-14T11:25:26.350Z,6.75
2023-03-14T11:28:28.502Z,3.25
2023-03-14T11:31:11.058Z,5.00
2023-03-14T11:34:08.068Z,5.00
2023-03-14T11:36:35.339Z,4.00
2023-03-14T11:39:04.352Z,4.25
2023-03-14T11:41:37.274Z,2.00
2023-03-14T11:44:26.016Z,9.50
2023-03-14T11:47:15.670Z,5.25
2023-03-14T11:49:48.504Z,12.25
2023-03-14T11:52:18.157Z,4.00
2023-03-14T11:54:55.196Z,4.00
2023-03-14T11:57:23.736Z,4.25
2023-03-14T12:00:15.098Z,3.50
2023-03-14T12:03:05.945Z,2.00
2023-03-14T12:06:03.654Z,5.75
2023-03-14T12:09:00.106Z,6.50
2023-03-14T12:12:07.625Z,8.75
2023-03-14T12:14:45.024Z,10.00
2023-03-14T12:17:24.009Z,2.00
2023-03-14T12:20:13.847Z,5.00
2023-03-14T12:22:44.599Z,7.25
2023-03-14T12:25:33.158Z,15.00
2023-03-14T12:28:22.221Z,15.00
2023-03-14T12:30:49.579Z,6.00
2023-03-14T12:33:18.959Z,3.00
2023-03-14T12:35:46.915Z,4.25
2023-03-14T12:38:44.117Z,3.00
2023-03-14T12:41:21.827Z,4.00
2023-03-14T12:43:48.748Z,2.75
2023-03-14T12:46:18.324Z,8.75
2023-03-14T12:48:47.802Z,10.25
2023-03-14T12:51:16.945Z,7.00
2023-03-14T12:53:46.573Z,3.00
2023-03-14T12:56:33.408Z,4.00
2023-03-14T12:59:15.816Z,15.25
2023-03-14T13:02:03.500Z,12.00
2023-03-14T13:04:44.520Z,4.00
2023-03-14T13:07:32.315Z,2.00
2023-03-14T13:10:11.166Z,6.75
2023-03-14T13:12:48.160Z,11.25
2023-03-14T13:15:21.035Z,4.00
2023-03-14T13:17:50.608Z,15.50
2023-03-14T13:20:29.142Z,7.50
2023-03-14T13:22:57.663Z,27.67
2023-03-14T13:25:24.835Z,11.00
2023-03-14T13:27:56.787Z,8.00
2023-03-14T13:30:30.575Z,8.00
2023-03-14T13:32:57.847Z,10.25
2023-03-14T13:35:26.046Z,10.25
2023-03-14T13:38:17.643Z,7.50
2023-03-14T13:40:46.385Z,12.50
2023-03-14T13:43:21.281Z,9.50
2023-03-14T13:46:04.872Z,15.00
2023-03-14T13:48:34.444Z,6.50
2023-03-14T13:51:08.560Z,16.25
2023-03-14T13:54:05.255Z,12.25
2023-03-14T13:56:34.056Z,19.67
2023-03-14T13:59:01.111Z,12.00
2023-03-14T14:01:32.248Z,11.75
2023-03-14T14:04:23.336Z,3.00
2023-03-14T14:06:55.577Z,4.00
2023-03-14T14:09:27.140Z,4.00
2023-03-14T14:12:17.772Z,8.00
2023-03-14T14:14:57.333Z,3.50
2023-03-14T14:17:40.540Z,3.00
2023-03-14T14:20:21.582Z,5.00
2023-03-14T14:22:49.414Z,1.00
2023-03-14T14:25:16.691Z,13.25
2023-03-14T14:27:47.781Z,4.50
2023-03-14T14:30:20.248Z,7.25
2023-03-14T14:32:52.071Z,4.00
2023-03-14T14:35:25.048Z,2.00
2023-03-14T14:37:52.677Z,3.00
2023-03-14T14:40:25.959Z,4.00
2023-03-14T14:42:53.242Z,3.00
2023-03-14T14:45:23.281Z,3.00
2023-03-14T14:47:56.141Z,2.00
2023-03-14T14:50:30.576Z,4.00
2023-03-14T14:53:02.700Z,2.00
2023-03-14T14:55:35.259Z,0.00
2023-03-14T14:58:27.283Z,2.50
2023-03-14T15:01:04.928Z,5.25
2023-03-14T15:03:35.588Z,3.00
2023-03-14T15:06:04.605Z,3.00
2023-03-14T15:08:31.541Z,3.25
2023-03-14T15:10:58.923Z,1.25
2023-03-14T15:13:25.899Z,4.00
2023-03-14T15:15:59.031Z,3.75
2023-03-14T15:18:31.514Z,5.00
2023-03-14T15:20:58.440Z,4.00
2023-03-14T15:23:25.406Z,5.00
2023-03-14T15:25:56.038Z,5.75
2023-03-14T15:28:28.726Z,4.00
2023-03-14T15:31:00.038Z,3.75
2023-03-14T15:33:27.676Z,4.00
2023-03-14T15:35:55.654Z,3.75
2023-03-14T15:38:26.314Z,6.00
2023-03-14T15:40:54.255Z,8.25
2023-03-14T15:43:21.529Z,5.25
2023-03-14T15:45:48.573Z,8.75
2023-03-14T15:48:17.464Z,16.00
2023-03-14T15:50:45.069Z,8.50
2023-03-14T15:53:12.613Z,3.50
2023-03-14T15:55:39.457Z,9.25
2023-03-14T15:58:06.601Z,10.25
2023-03-14T16:00:33.506Z,7.75
2023-03-14T16:03:00.863Z,7.25
2023-03-14T16:05:27.800Z,9.00
2023-03-14T16:07:54.569Z,9.00
2023-03-14T16:10:21.451Z,7.25
2023-03-14T16:12:48.848Z,8.25
2023-03-14T16:15:15.894Z,5.00
2023-03-14T16:17:44.323Z,1.25
2023-03-14T16:20:12.825Z,3.75
2023-03-14T16:22:39.751Z,8.00
2023-03-14T16:25:08.203Z,3.75
2023-03-14T16:27:35.185Z,5.25
2023-03-14T16:30:02.093Z,6.00
2023-03-14T16:32:29.101Z,5.00
2023-03-14T16:34:56.664Z,16.00
2023-03-14T16:37:24.963Z,12.00
2023-03-14T16:40:11.044Z,23.00
2023-03-14T16:42:46.633Z,23.00
2023-03-14T16:45:17.498Z,21.33
2023-03-14T16:47:44.478Z,28.67
2023-03-14T16:50:11.590Z,24.67
2023-03-14T16:52:39.171Z,25.33
2023-03-14T16:55:07.604Z,21.33
2023-03-14T16:57:35.250Z,7.00
2023-03-14T17:00:03.253Z,19.33
2023-03-14T17:02:30.054Z,21.00
2023-03-14T17:04:56.855Z,22.00
2023-03-14T17:07:23.653Z,25.00
2023-03-14T17:09:51.761Z,23.00
2023-03-14T17:12:18.556Z,32.00
2023-03-14T17:14:45.393Z,72.50
2023-03-14T17:17:12.322Z,38.25
2023-03-14T17:19:39.097Z,35.00
2023-03-14T17:22:21.905Z,49.00
2023-03-14T17:24:50.257Z,71.50
2023-03-14T17:27:20.467Z,78.00
2023-03-14T17:29:48.484Z,76.00
2023-03-14T17:32:16.831Z,71.25
2023-03-14T17:34:43.915Z,75.50
2023-03-14T17:37:11.174Z,81.00
2023-03-14T17:39:39.428Z,79.25
2023-03-14T17:42:07.226Z,85.25
2023-03-14T17:44:34.941Z,71.75
2023-03-14T17:47:02.357Z,79.75
2023-03-14T17:49:29.574Z,71.25
2023-03-14T17:51:56.315Z,46.00
2023-03-14T17:54:23.141Z,52.00
2023-03-14T17:56:50.566Z,74.25
2023-03-14T17:59:18.034Z,67.00
2023-03-14T18:01:45.793Z,75.25
2023-03-14T18:04:14.425Z,127.25
2023-03-14T18:06:44.783Z,104.25
2023-03-14T18:09:11.681Z,94.75
2023-03-14T18:11:38.598Z,96.00
2023-03-14T18:14:07.802Z,100.25
2023-03-14T18:16:35.254Z,49.00
2023-03-14T18:19:04.142Z,94.50
2023-03-14T18:21:31.121Z,91.50
2023-03-14T18:23:58.528Z,90.25
2023-03-14T18:26:28.195Z,97.00
2023-03-14T18:28:55.238Z,119.25
2023-03-14T18:31:25.178Z,104.75
2023-03-14T18:33:55.773Z,104.00
2023-03-14T18:36:22.626Z,93.00
2023-03-14T18:38:51.660Z,124.00
2023-03-14T18:41:20.276Z,121.00
2023-03-14T18:43:47.187Z,92.00
2023-03-14T18:46:14.241Z,56.25
2023-03-14T18:48:44.672Z,82.75
2023-03-14T18:51:15.286Z,50.00
2023-03-14T18:53:43.345Z,49.00
2023-03-14T18:56:14.219Z,47.25
2023-03-14T18:58:42.546Z,44.25
2023-03-14T19:01:11.730Z,51.25
2023-03-14T19:03:39.743Z,47.75
2023-03-14T19:06:08.427Z,44.50
2023-03-14T19:08:36.507Z,50.25
2023-03-14T19:11:06.549Z,63.00
2023-03-14T19:13:34.915Z,72.50
2023-03-14T19:16:02.714Z,77.75
2023-03-14T19:18:31.253Z,76.25
2023-03-14T19:21:04.118Z,101.00
2023-03-14T19:23:33.299Z,93.25
2023-03-14T19:26:02.970Z,73.00
2023-03-14T19:28:34.822Z,87.75
2023-03-14T19:31:04.612Z,65.50
2023-03-14T19:33:32.134Z,91.00
2023-03-14T19:35:59.683Z,94.50
2023-03-14T19:38:26.503Z,106.75
2023-03-14T19:40:58.809Z,104.75
2023-03-14T19:43:27.867Z,86.50
2023-03-14T19:45:55.745Z,74.00
2023-03-14T19:48:30.793Z,77.50
2023-03-14T19:51:00.147Z,101.25
2023-03-14T19:53:28.071Z,94.50
2023-03-14T19:55:55.691Z,102.50
2023-03-14T19:58:23.730Z,98.50
2023-03-14T20:00:51.531Z,92.75
2023-03-14T20:03:18.484Z,90.25
2023-03-14T20:05:46.047Z,114.00
2023-03-14T20:08:12.957Z,110.50
2023-03-14T20:10:39.847Z,99.00
2023-03-14T20:13:19.111Z,97.50
2023-03-14T20:15:48.576Z,106.50
2023-03-14T20:18:15.394Z,80.75
2023-03-14T20:20:42.372Z,92.25
2023-03-14T20:23:09.429Z,78.75
2023-03-14T20:25:37.958Z,93.75
2023-03-14T20:28:05.451Z,97.50
2023-03-14T20:30:33.769Z,91.75
2023-03-14T20:33:04.660Z,86.75
2023-03-14T20:35:31.814Z,96.00
2023-03-14T20:37:58.684Z,92.25
2023-03-14T20:40:28.718Z,59.75
2023-03-14T20:42:55.991Z,95.75
2023-03-14T20:45:22.896Z,141.00
2023-03-14T20:47:51.010Z,134.50
2023-03-14T20:50:17.832Z,127.00
2023-03-14T20:52:45.472Z,125.25
2023-03-14T20:55:12.818Z,112.00
2023-03-14T20:57:39.595Z,100.00
2023-03-14T21:00:07.867Z,81.75
2023-03-14T21:02:35.314Z,77.25
2023-03-14T21:05:02.746Z,56.25
2023-03-14T21:07:31.956Z,51.25
2023-03-14T21:09:59.247Z,63.75
2023-03-14T21:12:26.218Z,64.25
2023-03-14T21:14:53.740Z,91.50
2023-03-14T21:17:21.080Z,94.75
2023-03-14T21:19:47.983Z,89.75
2023-03-14T21:22:18.820Z,91.25
2023-03-14T21:24:46.289Z,79.00
2023-03-14T21:27:13.128Z,64.50
2023-03-14T21:29:40.310Z,54.25
2023-03-14T21:32:07.330Z,47.75
2023-03-14T21:34:34.231Z,38.50
2023-03-14T21:37:01.441Z,42.25
2023-03-14T21:39:28.633Z,17.00
2023-03-14T21:41:55.576Z,39.25
2023-03-14T21:44:23.311Z,37.00
2023-03-14T21:46:50.955Z,29.00
2023-03-14T21:49:18.057Z,32.50
2023-03-14T21:51:46.261Z,45.25
2023-03-14T21:54:15.519Z,29.75
2023-03-14T21:56:44.162Z,38.00
2023-03-14T21:59:12.072Z,38.75
2023-03-14T22:01:39.327Z,38.00
2023-03-14T22:04:06.281Z,51.00
2023-03-14T22:06:35.100Z,67.25
2023-03-14T22:09:03.225Z,36.25
2023-03-14T22:11:29.976Z,39.50
2023-03-14T22:13:57.828Z,46.25
2023-03-14T22:16:25.464Z,50.75
2023-03-14T22:18:52.258Z,51.75
2023-03-14T22:21:19.788Z,55.00
2023-03-14T22:23:46.508Z,50.75
2023-03-14T22:26:13.319Z,45.00
2023-03-14T22:28:40.620Z,70.25
2023-03-14T22:31:09.761Z,56.75
2023-03-14T22:33:36.645Z,67.00
2023-03-14T22:36:04.755Z,83.00
2023-03-14T22:38:31.807Z,130.50
2023-03-14T22:41:02.589Z,79.25
2023-03-14T22:43:31.070Z,83.50
2023-03-14T22:46:06.641Z,75.25
2023-03-14T22:48:34.228Z,75.75
2023-03-14T22:51:06.888Z,74.50
2023-03-14T22:53:33.840Z,80.75
2023-03-14T22:56:02.306Z,89.25
2023-03-14T22:58:29.500Z,83.25
2023-03-14T23:00:56.720Z,84.00
2023-03-14T23:03:23.648Z,89.75
2023-03-14T23:05:50.560Z,92.00
2023-03-14T23:08:17.732Z,75.75
2023-03-14T23:10:44.702Z,83.75
2023-03-14T23:13:15.185Z,77.75
2023-03-14T23:15:44.631Z,53.25
2023-03-14T23:18:13.821Z,85.00
2023-03-14T23:20:43.179Z,55.75
2023-03-14T23:23:13.807Z,54.00
2023-03-14T23:25:52.810Z,70.75
2023-03-14T23:28:23.219Z,50.75
2023-03-14T23:30:56.852Z,56.75
2023-03-14T23:33:25.891Z,57.00
2023-03-14T23:35:54.489Z,58.25
2023-03-14T23:38:25.919Z,54.75
2023-03-14T23:40:53.661Z,55.50
2023-03-14T23:43:21.809Z,54.00
2023-03-14T23:45:53.980Z,56.75
2023-03-14T23:48:25.796Z,50.00
2023-03-14T23:50:59.877Z,72.25
2023-03-14T23:53:28.391Z,65.75
2023-03-14T23:55:55.863Z,66.25
2023-03-14T23:58:23.481Z,70.50
